Kezdőlap
METAR-TAF:

METAR-TAF

Repülőterek :

El Goléa, Algéria

földrajzi szélesség: 30-34N, földrajzi hosszúság: 002-52E, magasság: 397 m

Jelenlegi meteorológiai megfigyelések

A jelentés 31 perccel ezelõtt készült, 13:00 UTC
Keleti szél 4 kt
Hőmérséklet 38°C
Páratartalom 11%
Légköri nyomás 1011 hPa
Látótávolság: 8000 m

METAR: DAUE 301300Z 10004KT 8000 NSC 38/03 Q1011

Idő: 14:31 (13:31 UTC)


TAF: hiányzik

Meteorológiai megfigyelések és előrejelzések több, mint 4000 repülőtéren (METAR és TAF jelentéseket).

A térképen piros és sárga pontok jelzik az elérhető meteorológiai állomásokat.

Mozgassa az egeret a pont fölött, hogy megjelenjen az állomás neve.

Azután kattintson az időjárási megfigyelések és előrejelzések megtekintéséhez.

A térkép megváltoztatása: kattintson a fekete keresztel jelölt zöld gombra ráközelítéshez, a vonallal jelölt zöld gombra távolításhoz, vagy a zöld nyilakra a szomszédos térképek eléréséhez.


METAR-TAF: